METAR AND TAF INFORMATION
METAR FOR EHVK
ADDS - METARS form results

(0743 UTC 25 January 2022)
Data provider http://aviationweather.gov/metar/data/
 
METAR text: EHVK 250725Z AUTO VRB02KT 6000 BR OVC016 04/00 Q1033 WHT TEMPO 3000 BR
Conditions at: EHVK (VOLKEL RNLAFB , NL) observed 0725 UTC 25 January 2022
Temperature: 4.0°C (39°F)
Dewpoint: 0.0°C (32°F) [RH = 75%]
Pressure (altimeter): 30.50 inches Hg (1033.0 mb)
Winds: variable direction winds at 2 MPH (2 knots; 1.0 m/s)
Visibility: 4 miles ( 6 km)
Ceiling: 1600 feet AGL
Clouds: overcast cloud deck at 1600 feet AGL
Weather: BR  (mist)

METAR text: EHVK 250706Z AUTO VRB04KT 6000 BR OVC016 04/00 Q1033 WHT TEMPO 3000 BR
Conditions at: EHVK (VOLKEL RNLAFB , NL) observed 0706 UTC 25 January 2022
Temperature: 4.0°C (39°F)
Dewpoint: 0.0°C (32°F) [RH = 75%]
Pressure (altimeter): 30.50 inches Hg (1033.0 mb)
Winds: variable direction winds at 5 MPH (4 knots; 2.1 m/s)
Visibility: 4 miles ( 6 km)
Ceiling: 1600 feet AGL
Clouds: overcast cloud deck at 1600 feet AGL
Weather: BR  (mist)

METAR text: EHVK 250655Z AUTO 08003KT 050V170 6000 BR OVC016 04/00 Q1033 WHT
Conditions at: EHVK (VOLKEL RNLAFB , NL) observed 0655 UTC 25 January 2022
Temperature: 4.0°C (39°F)
Dewpoint: 0.0°C (32°F) [RH = 75%]
Pressure (altimeter): 30.50 inches Hg (1033.0 mb)
Winds: from the E (80 degrees) at 3 MPH (3 knots; 1.5 m/s)
Visibility: 4 miles ( 6 km)
Ceiling: 1600 feet AGL
Clouds: overcast cloud deck at 1600 feet AGL
Weather: BR  (mist)

Forecast for: EHVK (VOLKEL RNLAFB , NL)
Text: TAF EHVK 250526Z 2506/2518 VRB02KT 6000 OVC017
Forecast period: 0600 to 1800 UTC 25 January 2022
Forecast type: FROM: standard forecast or significant change
Winds: variable direction winds at 2 MPH (2 knots; 1.0 m/s)
Visibility: 4 miles (6 km)
Ceiling: 1700 feet AGL
Clouds: overcast cloud deck at 1700 feet AGL
Weather: no significant weather forecast for this period
Text: TEMPO 2506/2510 3000 BR BKN015
Forecast period: 0600 to 1000 UTC 25 January 2022
Forecast type: TEMPORARY: The following changes expected for less than half the time period
Visibility: 1.86 miles (2.99 km)
Ceiling: 1500 feet AGL
Clouds: broken clouds at 1500 feet AGL
Weather: BR  (mist)
Text: TEMPO 2510/2518 BKN020
Forecast period: 1000 to 1800 UTC 25 January 2022
Forecast type: TEMPORARY: The following changes expected for less than half the time period
Visibility: missing
Ceiling: 2000 feet AGL
Clouds: broken clouds at 2000 feet AGL
Weather: no significant weather forecast for this period

 AIRPORT MAP

 RUNWAY INFORMATION
Runway 06L Runway length 9922 ft Runway width 148 ft
Runway elevation 71 ft Runway displaced threshold 444 ft Runway heading 58
Runway 24R Runway length 9922 ft Runway width 148 ft
Runway elevation 64 ft Runway displaced threshold 444 ft Runway heading 238
Runway 06R Runway length 9931 ft Runway width 74 ft
Runway elevation 72 ft Runway displaced threshold 446 ft Runway heading 58
Runway 24L Runway length 9931 ft Runway width 74 ft
Runway elevation 65 ft Runway displaced threshold 446 ft Runway heading 238

 AIRPORT FREQUENCIES
Type APP Name RAPCON SOU Frequency 123.175 MHZ
Type GND Name GND Frequency 38.677 MHZ
Type TWR Name TWR Frequency 133.425 MHZ

 AIRPORT NEAR NAVIGATION AIDS
Type TACAN Name Volkel Frequency 108300 KHZ